Flight Track Log - Related Links

Times and Time Zones

All times are in EDT time to prevent confusion due to time zone crossing. See the AAL959 flight status page for this flight to view local times or setup timezone preferences in your user account.

Time Position Orientation Groundspeed Altitude Reporting Facility
EDT Latitude Longitude Course Direction KTS MPH feet Rate Location/Type
Sat 07:36:13 PM 25.7961 -80.2675 150° Southeast 168 193 700  Level Miami Center
Sat 07:37:56 PM 25.7422 -80.1644 120° Southeast 273 314 3,900 1,684 Climbing Miami Center
Sat 07:38:00 PM 25.4927 -80.2719 153° Southeast  Level Estimated
Sat 07:39:00 PM 25.4544 -80.1684 112° Southeast  Level FlightAware Approximate
Sat 07:39:29 PM 25.6386 -80.1203 159° South 285 328 6,200  Level Miami Center
Sat 07:40:00 PM 25.3535 -80.1630 146° Southeast  Level Estimated
Sat 07:40:29 PM 25.5597 -80.1067 171° South 285 328 8,400  Level Miami Center
Sat 07:41:00 PM 25.2526 -80.1577 150° Southeast  Level Estimated
Sat 07:41:29 PM 25.4744 -80.0811 165° South 298 343 11,100  Level Miami Center
Sat 07:42:29 PM 25.3900 -80.0353 154° Southeast 313 360 13,400 2,800 Climbing Miami Center
Sat 07:43:29 PM 25.2947 -79.9939 159° South 347 399 16,700 3,050 Climbing Miami Center
Sat 07:44:29 PM 25.1931 -79.9544 161° South 372 428 19,500 2,700 Climbing Miami Center
Sat 07:45:29 PM 25.0853 -79.9150 162° South 388 447 22,100 2,550 Climbing Miami Center
Sat 07:46:29 PM 24.9753 -79.8756 162° South 409 471 24,600 2,250 Climbing Miami Center
Sat 07:47:29 PM 24.8656 -79.8339 161° South 416 479 26,600 1,900 Climbing Miami Center
Sat 07:48:29 PM 24.7453 -79.7922 163° South 434 499 28,400 1,700 Climbing Miami Center
Sat 07:49:29 PM 24.6144 -79.7433 161° South 447 514 30,000 1,600 Climbing Miami Center
Sat 07:50:29 PM 24.4922 -79.6972 161° South 458 527 31,600 1,500 Climbing Miami Center
Sat 07:51:29 PM 24.3633 -79.6531 163° South 465 535 33,000 650 Climbing Miami Center
Sat 07:52:29 PM 24.2369 -79.6072 162° South 476 548 32,900 350 Descending Miami Center
Sat 07:53:29 PM 24.1100 -79.5656 163° South 476 548 33,700 127 Climbing Miami Center
Sat 08:40:41 PM 18.4695 -79.1460 182° South 428 493 39,000 111 Climbing FlightAware ADS-B (MKBS / OCJ)
Sat 08:41:11 PM 18.4132 -79.1473 182° South 428 493 39,000  Level FlightAware ADS-B (MKBS / OCJ)
Sat 08:41:32 PM 18.3679 -79.1483 182° South 428 493 39,000  Level FlightAware ADS-B (MKBS / OCJ)
Sat 08:41:46 PM 18.3460 -79.1488 182° South 428 493 39,000  Level FlightAware ADS-B (MKBS / OCJ)
Sat 08:42:37 PM 18.2390 -79.1513 182° South 427 491 39,000  Level FlightAware ADS-B (MKBS / OCJ)
Sat 08:43:10 PM 18.1731 -79.1527 182° South 427 491 39,000  Level FlightAware ADS-B (MKBS / OCJ)
Sat 08:43:37 PM 18.1516 -79.1532 182° South 427 491 39,000  Level FlightAware ADS-B (MKBS / OCJ)
Sat 08:44:13 PM 18.0508 -79.1554 182° South 426 490 39,000  Level FlightAware ADS-B (MKBS / OCJ)
Sat 08:44:43 PM 17.9906 -79.1568 182° South 424 488 39,000  Level FlightAware ADS-B (MKBS / OCJ)
Sat 08:44:57 PM 17.9823 -79.1570 182° South 424 488 39,000  Level FlightAware ADS-B (MKBS / OCJ)
Sat 08:45:31 PM 17.9198 -79.1585 182° South 423 487 39,000  Level FlightAware ADS-B (MKBS / OCJ)
Sat 08:46:13 PM 17.8153 -79.1608 182° South 420 483 39,000  Level FlightAware ADS-B (MKBS / OCJ)
Sat 08:46:32 PM 17.7786 -79.1616 182° South 420 483 39,000  Level FlightAware ADS-B (MKBS / OCJ)
Sat 08:47:04 PM 17.7168 -79.1630 182° South 418 481 39,000  Level FlightAware ADS-B (MKBS / OCJ)
Sat 08:47:40 PM 17.6765 -79.1639 182° South 418 481 39,000 208 Level FlightAware ADS-B (MKBS / OCJ)
Sat 08:50:26 PM 17.3263 -79.1718 182° South 419 482 39,700 448 Climbing FlightAware ADS-B (MKBS / OCJ)
Sat 08:52:08 PM 17.1457 -79.1759 182° South 411 473 41,000 614 Climbing FlightAware ADS-B (MKBS / OCJ)
Sat 08:52:33 PM 17.0849 -79.1773 182° South 412 474 41,000  Level FlightAware ADS-B (MKBS / OCJ)
Sat 08:53:09 PM 17.0615 -79.1779 182° South 412 474 41,000  Level FlightAware ADS-B (MKBS / OCJ)
Sat 08:54:09 PM 16.9060 -79.1814 182° South 412 474 41,000  Level FlightAware ADS-B (MKBS / OCJ)
Sat 08:54:40 PM 16.8444 -79.1828 182° South 412 474 41,000  Level FlightAware ADS-B (MKBS / OCJ)
Sat 08:55:11 PM 16.7836 -79.1841 182° South 412 474 41,000  Level FlightAware ADS-B (MKBS / OCJ)
Sat 08:55:42 PM 16.7228 -79.1854 182° South 412 474 41,000  Level FlightAware ADS-B (MKBS / OCJ)
Sat 08:56:11 PM 16.6723 -79.1865 182° South 412 474 41,000  Level FlightAware ADS-B (MKBS / OCJ)
Sat 08:56:39 PM 16.6557 -79.1868 182° South 412 474 41,000  Level FlightAware ADS-B (MKBS / OCJ)
Sat 08:57:10 PM 16.5547 -79.1890 182° South 413 475 41,000  Level FlightAware ADS-B (MKBS / OCJ)
Sat 08:57:31 PM 16.5159 -79.1898 182° South 413 475 41,000  Level FlightAware ADS-B (MKBS / OCJ)
Sat 08:58:53 PM 16.3612 -79.1934 182° South 414 476 41,000  Level FlightAware ADS-B (MKBS / OCJ)
Sat 09:01:00 PM 16.1258 -79.1974 181° South  Level FlightAware Approximate
Sat 09:01:02 PM 16.1119 -79.1988 182° South 415 478 41,000  Level FlightAware ADS-B (MKBS / OCJ)
Sat 09:01:30 PM 16.0596 -79.2000 182° South 416 479 41,000  Level FlightAware ADS-B (MKBS / OCJ)
Sat 09:02:03 PM 16.0368 -79.2005 182° South 415 478 41,000  Level FlightAware ADS-B (MKBS / OCJ)
Sat 09:02:29 PM 15.9444 -79.2026 182° South 414 476 41,000  Level FlightAware ADS-B (MKBS / OCJ)
Sat 09:02:40 PM 15.9273 -79.2030 182° South 414 476 41,000  Level FlightAware ADS-B (MKBS / OCJ)
Sat 09:15:27 PM 14.4613 -79.2531 184° South 411 473 41,000  Level FlightAware ADS-B (MKBS / OCJ)
Sat 09:15:49 PM 14.4207 -79.2554 184° South 411 473 41,000  Level FlightAware ADS-B (MKBS / OCJ)
Sat 09:18:00 PM 14.1779 -79.2596 181° South  Level FlightAware Approximate
Sat 09:19:00 PM 14.0667 -79.2616 181° South  Level FlightAware Approximate
Sat 09:20:00 PM 13.9556 -79.2635 181° South  Level FlightAware Approximate
Sat 09:21:00 PM 13.8443 -79.2655 181° South  Level FlightAware Approximate
Sat 09:22:00 PM 13.7331 -79.2674 181° South  Level FlightAware Approximate
Sat 09:23:00 PM 13.6219 -79.2693 181° South  Level FlightAware Approximate
Sat 09:24:00 PM 13.5107 -79.2713 181° South  Level FlightAware Approximate
Sat 09:25:00 PM 13.3995 -79.2732 181° South  Level FlightAware Approximate
Sat 09:26:00 PM 13.2883 -79.2751 181° South  Level FlightAware Approximate
Sat 09:27:00 PM 13.1771 -79.2771 181° South  Level FlightAware Approximate
Sat 09:28:00 PM 13.0659 -79.2790 181° South  Level FlightAware Approximate
Sat 09:29:00 PM 12.9547 -79.2809 181° South  Level FlightAware Approximate
Sat 09:30:00 PM 12.8435 -79.2829 181° South  Level FlightAware Approximate
Sat 09:31:00 PM 12.7323 -79.2848 181° South  Level FlightAware Approximate
Sat 09:32:00 PM 12.6211 -79.2867 181° South  Level FlightAware Approximate
Sat 09:33:00 PM 12.5099 -79.2886 181° South  Level FlightAware Approximate
Sat 09:34:00 PM 12.3987 -79.2906 181° South  Level FlightAware Approximate
Sat 09:35:00 PM 12.2875 -79.2925 181° South  Level FlightAware Approximate
Sat 09:36:00 PM 12.1763 -79.2944 181° South  Level FlightAware Approximate
Sat 09:37:00 PM 12.0651 -79.2963 181° South  Level FlightAware Approximate
Sat 09:38:00 PM 11.9539 -79.2982 181° South  Level FlightAware Approximate
Sat 09:39:00 PM 11.8429 -79.3003 183° South  Level FlightAware Approximate
Sat 09:40:00 PM 11.7318 -79.3054 183° South  Level FlightAware Approximate
Sat 09:41:00 PM 11.6207 -79.3104 183° South  Level FlightAware Approximate
Sat 09:42:00 PM 11.5096 -79.3155 183° South  Level FlightAware Approximate
Sat 09:43:00 PM 11.3984 -79.3167 180° South  Level FlightAware Approximate
Sat 09:44:00 PM 11.2872 -79.3167 180° South  Level FlightAware Approximate
Sat 09:45:00 PM 11.1760 -79.3167 180° South  Level FlightAware Approximate
Sat 09:46:00 PM 11.0647 -79.3167 180° South  Level FlightAware Approximate
Sat 09:47:00 PM 10.9535 -79.3167 180° South  Level FlightAware Approximate
Sat 09:48:00 PM 10.8429 -79.3286 186° South  Level FlightAware Approximate
Sat 09:49:00 PM 10.7320 -79.3333 180° South  Level FlightAware Approximate
Sat 09:50:00 PM 10.6208 -79.3333 180° South  Level FlightAware Approximate
Sat 09:51:00 PM 10.5095 -79.3333 180° South  Level FlightAware Approximate
Sat 09:52:00 PM 10.3983 -79.3333 180° South  Level FlightAware Approximate
Sat 09:53:00 PM 10.2871 -79.3359 182° South  Level FlightAware Approximate
Sat 09:54:00 PM 10.1760 -79.3395 182° South  Level FlightAware Approximate
Sat 09:55:00 PM 10.0648 -79.3431 182° South  Level FlightAware Approximate
Sat 09:56:00 PM 9.9536 -79.3467 182° South  Level FlightAware Approximate
Sat 09:57:00 PM 9.8425 -79.3500 180° South  Level FlightAware Approximate
Sat 09:58:00 PM 9.7313 -79.3500 180° South  Level FlightAware Approximate
Sat 09:59:00 PM 9.6202 -79.3549 184° South  Level FlightAware Approximate
Sat 10:00:00 PM 9.5093 -79.3634 184° South  Level FlightAware Approximate
Sat 10:01:00 PM 9.3982 -79.3667 180° South  Level FlightAware Approximate
Sat 10:02:00 PM 9.2870 -79.3667 180° South  Level FlightAware Approximate
Sat 10:03:00 PM 9.1758 -79.3667 180° South  Level FlightAware Approximate
Sat 10:04:00 PM 9.0667 -79.3667 180° South  Level FlightAware Approximate
Sat 10:05:00 PM 9.0714 -79.3835 180° South  Level Estimated
Sat 10:06:00 PM 9.0714 -79.3835 180° South  Level Estimated
Sat 10:07:00 PM 9.0714 -79.3835 180° South  Level Estimated
Sat 10:08:00 PM 9.0714 -79.3835 180° South  Level Estimated
Sat 10:09:00 PM 9.0714 -79.3835 180° South  Level Estimated
Sat 10:10:00 PM 9.0714 -79.3835 180° South  Level Estimated
Sat 10:11:00 PM 9.0714 -79.3835 180° South  Level Estimated
Sat 10:12:00 PM 9.0714 -79.3835 180° South  Level Estimated
Sat 10:13:00 PM 9.0714 -79.3835 180° South  Level Estimated
Sat 10:14:00 PM 9.0714 -79.3835 180° South  Level Estimated
Sat 10:15:00 PM 9.0714 -79.3835 180° South  Level Estimated
Sat 10:16:00 PM 9.0714 -79.3835 180° South  Level Estimated

Login

Don't have an account? Register now (free) for customized features, flight alerts, and more!